createdAt,value
2017-05-21T00:00:51.410Z,0
2017-05-21T00:02:00.613Z,0
2017-05-21T00:03:09.644Z,0
2017-05-21T00:04:18.714Z,0
2017-05-21T00:05:27.784Z,0
2017-05-21T00:06:37.096Z,0
2017-05-21T00:07:46.194Z,0
2017-05-21T00:08:55.205Z,0
2017-05-21T00:10:04.494Z,0
2017-05-21T00:11:13.453Z,0
2017-05-21T00:12:22.950Z,0
2017-05-21T00:13:31.958Z,0
2017-05-21T00:14:40.919Z,0
2017-05-21T00:15:50.234Z,0
2017-05-21T00:16:59.480Z,0
2017-05-21T00:18:08.746Z,0
2017-05-21T00:19:17.871Z,0
2017-05-21T00:20:26.961Z,0
2017-05-21T00:21:36.039Z,0
2017-05-21T00:22:45.066Z,0
2017-05-21T00:23:54.389Z,0
2017-05-21T00:25:03.464Z,0
2017-05-21T00:26:12.578Z,0
2017-05-21T00:27:21.668Z,0
2017-05-21T00:28:30.925Z,0
2017-05-21T00:29:40.186Z,0
2017-05-21T00:30:49.155Z,0
2017-05-21T00:31:58.187Z,0
2017-05-21T00:33:07.181Z,0
2017-05-21T00:34:16.195Z,0
2017-05-21T00:35:25.603Z,0
2017-05-21T00:36:34.608Z,0
2017-05-21T00:37:43.743Z,0
2017-05-21T00:38:52.834Z,0
2017-05-21T00:40:01.796Z,0
2017-05-21T00:41:11.148Z,0
2017-05-21T00:42:20.107Z,0
2017-05-21T00:43:29.084Z,0
2017-05-21T00:44:38.100Z,0
2017-05-21T00:45:47.206Z,0
2017-05-21T00:46:56.467Z,0
2017-05-21T00:48:05.429Z,0
2017-05-21T00:49:14.550Z,0
2017-05-21T00:50:23.612Z,0
2017-05-21T00:51:32.908Z,0
2017-05-21T00:52:42.249Z,0
2017-05-21T00:53:51.330Z,0
2017-05-21T00:55:00.488Z,0
2017-05-21T00:56:09.447Z,0
2017-05-21T00:57:18.428Z,0
2017-05-21T00:58:27.692Z,0
2017-05-21T00:59:36.652Z,0
2017-05-21T01:00:45.610Z,0
2017-05-21T01:01:54.570Z,0
2017-05-21T01:03:03.536Z,0
2017-05-21T01:04:12.796Z,0
2017-05-21T01:05:21.759Z,0
2017-05-21T01:06:30.723Z,0
2017-05-21T01:07:39.682Z,0
2017-05-21T01:08:48.644Z,0
2017-05-21T01:09:57.998Z,0
2017-05-21T01:11:06.964Z,0
2017-05-21T01:12:15.922Z,0
2017-05-21T01:13:24.885Z,0
2017-05-21T01:14:33.845Z,0
2017-05-21T01:15:43.048Z,0
2017-05-21T01:16:52.004Z,0
2017-05-21T01:18:00.965Z,0
2017-05-21T01:19:10.250Z,0
2017-05-21T01:20:19.214Z,0
2017-05-21T01:21:28.470Z,0
2017-05-21T01:22:37.428Z,0
2017-05-21T01:23:46.391Z,0
2017-05-21T01:24:55.351Z,0
2017-05-21T01:26:04.308Z,0
2017-05-21T01:27:13.846Z,0
2017-05-21T01:28:22.807Z,0
2017-05-21T01:29:31.774Z,0
2017-05-21T01:30:40.731Z,0
2017-05-21T01:31:49.690Z,0
2017-05-21T01:32:58.951Z,0
2017-05-21T01:34:07.915Z,0
2017-05-21T01:35:16.874Z,0
2017-05-21T01:36:26.153Z,0
2017-05-21T01:37:35.120Z,0
2017-05-21T01:38:44.383Z,0
2017-05-21T01:39:53.345Z,0
2017-05-21T01:41:02.308Z,0
2017-05-21T01:42:11.269Z,0
2017-05-21T01:43:20.233Z,0
2017-05-21T01:44:29.607Z,0
2017-05-21T01:45:38.568Z,0
2017-05-21T01:46:47.531Z,0
2017-05-21T01:47:56.493Z,0
2017-05-21T01:49:05.455Z,0
2017-05-21T01:50:14.716Z,0
2017-05-21T01:51:23.683Z,0
2017-05-21T01:52:32.640Z,0
2017-05-21T01:53:41.604Z,0
2017-05-21T01:54:50.563Z,0
2017-05-21T01:55:59.822Z,0
2017-05-21T01:57:08.784Z,0
2017-05-21T01:58:17.750Z,0
2017-05-21T01:59:26.711Z,0
2017-05-21T02:00:35.670Z,0
2017-05-21T02:01:44.880Z,0
2017-05-21T02:02:53.843Z,0
2017-05-21T02:04:02.804Z,0
2017-05-21T02:05:11.765Z,0
2017-05-21T02:06:20.725Z,0
2017-05-21T02:07:29.982Z,0
2017-05-21T02:08:38.945Z,0
2017-05-21T02:09:47.999Z,0
2017-05-21T02:10:57.024Z,0
2017-05-21T02:12:05.986Z,0
2017-05-21T02:13:15.249Z,0
2017-05-21T02:14:24.213Z,0
2017-05-21T02:15:33.174Z,0
2017-05-21T02:16:42.232Z,0
2017-05-21T02:17:51.191Z,0
2017-05-21T02:19:00.796Z,0
2017-05-21T02:20:09.756Z,0
2017-05-21T02:21:18.715Z,0
2017-05-21T02:22:27.680Z,0
2017-05-21T02:23:36.640Z,0
2017-05-21T02:24:45.901Z,0
2017-05-21T02:25:54.864Z,0
2017-05-21T02:27:03.820Z,0
2017-05-21T02:28:12.781Z,0
2017-05-21T02:29:21.743Z,0
2017-05-21T02:30:31.009Z,0
2017-05-21T02:31:39.967Z,0
2017-05-21T02:32:48.934Z,0
2017-05-21T02:33:57.898Z,0
2017-05-21T02:35:06.864Z,4
2017-05-21T02:36:16.120Z,4
2017-05-21T02:37:25.166Z,0
2017-05-21T02:38:34.122Z,0
2017-05-21T02:39:43.406Z,4
2017-05-21T02:40:52.444Z,4
2017-05-21T02:42:01.704Z,4
2017-05-21T02:43:10.669Z,4
2017-05-21T02:44:19.687Z,4
2017-05-21T02:45:28.645Z,4
2017-05-21T02:46:37.605Z,8
2017-05-21T02:47:46.868Z,4
2017-05-21T02:48:55.828Z,8
2017-05-21T02:50:05.129Z,8
2017-05-21T02:51:14.093Z,8
2017-05-21T02:52:23.054Z,12
2017-05-21T02:53:32.314Z,8
2017-05-21T02:54:41.366Z,12
2017-05-21T02:55:50.324Z,12
2017-05-21T02:56:59.283Z,16
2017-05-21T02:58:08.244Z,16
2017-05-21T02:59:17.502Z,16
2017-05-21T03:00:26.464Z,16
2017-05-21T03:01:35.419Z,24
2017-05-21T03:02:44.381Z,24
2017-05-21T03:03:53.341Z,24
2017-05-21T03:05:02.701Z,24
2017-05-21T03:06:11.660Z,28
2017-05-21T03:07:20.612Z,32
2017-05-21T03:08:29.576Z,32
2017-05-21T03:09:38.537Z,36
2017-05-21T03:10:47.793Z,40
2017-05-21T03:11:57.078Z,44
2017-05-21T03:13:06.036Z,44
2017-05-21T03:14:15.083Z,48
2017-05-21T03:15:24.035Z,52
2017-05-21T03:16:33.246Z,52
2017-05-21T03:17:42.211Z,60
2017-05-21T03:18:51.492Z,64
2017-05-21T03:20:00.451Z,64
2017-05-21T03:21:09.411Z,68
2017-05-21T03:22:18.676Z,72
2017-05-21T03:23:27.633Z,76
2017-05-21T03:24:36.600Z,80
2017-05-21T03:25:45.558Z,84
2017-05-21T03:26:54.516Z,88
2017-05-21T03:28:03.817Z,96
2017-05-21T03:29:12.834Z,100
2017-05-21T03:30:21.793Z,100
2017-05-21T03:31:30.753Z,104
2017-05-21T03:32:39.718Z,112
2017-05-21T03:33:48.931Z,116
2017-05-21T03:34:57.893Z,120
2017-05-21T03:36:06.857Z,124
2017-05-21T03:37:15.823Z,128
2017-05-21T03:38:24.844Z,132
2017-05-21T03:39:34.103Z,136
2017-05-21T03:40:43.155Z,144
2017-05-21T03:41:52.121Z,148
2017-05-21T03:43:01.088Z,152
2017-05-21T03:44:10.047Z,160
2017-05-21T03:45:19.259Z,168
2017-05-21T03:46:28.225Z,172
2017-05-21T03:47:37.183Z,176
2017-05-21T03:48:46.145Z,180
2017-05-21T03:49:55.103Z,184
2017-05-21T03:51:04.399Z,192
2017-05-21T03:52:13.360Z,200
2017-05-21T03:53:22.319Z,204
2017-05-21T03:54:31.278Z,212
2017-05-21T03:55:40.325Z,220
2017-05-21T03:56:49.535Z,224
2017-05-21T03:57:58.586Z,232
2017-05-21T03:59:07.613Z,236
2017-05-21T04:00:16.673Z,244
2017-05-21T04:01:25.718Z,248
2017-05-21T04:02:34.938Z,252
2017-05-21T04:03:43.899Z,260
2017-05-21T04:04:52.916Z,264
2017-05-21T04:06:01.872Z,272
2017-05-21T04:07:10.827Z,280
2017-05-21T04:08:20.363Z,284
2017-05-21T04:09:29.484Z,292
2017-05-21T04:10:38.771Z,296
2017-05-21T04:11:47.730Z,304
2017-05-21T04:12:56.687Z,308
2017-05-21T04:14:05.983Z,316
2017-05-21T04:15:14.948Z,324
2017-05-21T04:16:23.911Z,324
2017-05-21T04:17:32.869Z,328
2017-05-21T04:18:41.836Z,336
2017-05-21T04:19:51.049Z,336
2017-05-21T04:21:00.099Z,340
2017-05-21T04:22:09.055Z,348
2017-05-21T04:23:18.019Z,356
2017-05-21T04:24:26.981Z,360
2017-05-21T04:25:36.197Z,364
2017-05-21T04:26:45.250Z,372
2017-05-21T04:27:54.279Z,380
2017-05-21T04:29:03.324Z,384
2017-05-21T04:30:12.289Z,388
2017-05-21T04:31:21.498Z,396
2017-05-21T04:32:30.460Z,400
2017-05-21T04:33:39.418Z,408
2017-05-21T04:34:48.381Z,416
2017-05-21T04:35:57.341Z,424
2017-05-21T04:37:06.602Z,432
2017-05-21T04:38:15.567Z,440
2017-05-21T04:39:24.537Z,452
2017-05-21T04:40:33.496Z,456
2017-05-21T04:41:42.635Z,456
2017-05-21T04:42:51.848Z,468
2017-05-21T04:44:00.859Z,472
2017-05-21T04:45:09.826Z,484
2017-05-21T04:46:18.783Z,488
2017-05-21T04:47:27.742Z,496
2017-05-21T04:48:36.951Z,508
2017-05-21T04:49:45.920Z,520
2017-05-21T04:50:54.878Z,524
2017-05-21T04:52:03.830Z,528
2017-05-21T04:53:12.783Z,528
2017-05-21T04:54:21.995Z,532
2017-05-21T04:55:30.961Z,536
2017-05-21T04:56:39.920Z,544
2017-05-21T04:57:48.882Z,552
2017-05-21T04:58:57.842Z,552
2017-05-21T05:00:07.051Z,560
2017-05-21T05:01:16.014Z,568
2017-05-21T05:02:24.976Z,576
2017-05-21T05:03:33.930Z,580
2017-05-21T05:04:42.898Z,588
2017-05-21T05:05:52.112Z,596
2017-05-21T05:07:01.112Z,612
2017-05-21T05:08:10.071Z,616
2017-05-21T05:09:19.025Z,624
2017-05-21T05:10:28.064Z,628
2017-05-21T05:11:37.271Z,640
2017-05-21T05:12:46.231Z,656
2017-05-21T05:13:55.195Z,660
2017-05-21T05:15:04.157Z,668
2017-05-21T05:16:13.113Z,688
2017-05-21T05:17:22.323Z,684
2017-05-21T05:18:31.289Z,688
2017-05-21T05:19:40.251Z,696
2017-05-21T05:20:49.209Z,696
2017-05-21T05:21:58.167Z,704
2017-05-21T05:23:07.377Z,704
2017-05-21T05:24:16.341Z,704
2017-05-21T05:25:25.313Z,720
2017-05-21T05:26:34.357Z,728
2017-05-21T05:27:43.317Z,724
2017-05-21T05:28:52.531Z,736
2017-05-21T05:30:01.489Z,740
2017-05-21T05:31:10.452Z,744
2017-05-21T05:32:19.411Z,748
2017-05-21T05:33:28.464Z,760
2017-05-21T05:34:37.676Z,756
2017-05-21T05:35:46.729Z,772
2017-05-21T05:36:55.687Z,788
2017-05-21T05:38:04.655Z,792
2017-05-21T05:39:13.615Z,792
2017-05-21T05:40:22.821Z,808
2017-05-21T05:41:31.783Z,812
2017-05-21T05:42:40.826Z,820
2017-05-21T05:43:49.786Z,824
2017-05-21T05:44:58.742Z,840
2017-05-21T05:46:08.001Z,852
2017-05-21T05:47:16.961Z,852
2017-05-21T05:48:25.921Z,856
2017-05-21T05:49:34.892Z,876
2017-05-21T05:50:43.857Z,868
2017-05-21T05:51:53.063Z,876
2017-05-21T05:53:02.027Z,892
2017-05-21T05:54:10.984Z,892
2017-05-21T05:55:19.947Z,912
2017-05-21T05:56:28.906Z,920
2017-05-21T05:57:38.119Z,916
2017-05-21T05:58:47.084Z,928
2017-05-21T05:59:56.044Z,940
2017-05-21T06:01:05.004Z,944
2017-05-21T06:02:13.965Z,956
2017-05-21T06:03:23.232Z,968
2017-05-21T06:04:32.196Z,980
2017-05-21T06:05:41.160Z,984
2017-05-21T06:06:50.121Z,1000
2017-05-21T06:07:59.404Z,1004
2017-05-21T06:09:08.615Z,1004
2017-05-21T06:10:17.577Z,1016
2017-05-21T06:11:26.542Z,1016
2017-05-21T06:12:35.501Z,1032
2017-05-21T06:13:44.557Z,1052
2017-05-21T06:14:53.773Z,1064
2017-05-21T06:16:02.735Z,1052
2017-05-21T06:17:12.022Z,1052
2017-05-21T06:18:20.987Z,1076
2017-05-21T06:19:29.957Z,1072
2017-05-21T06:20:39.221Z,1084
2017-05-21T06:21:48.184Z,1100
2017-05-21T06:22:57.243Z,1088
2017-05-21T06:24:06.533Z,1116
2017-05-21T06:25:15.490Z,1124
2017-05-21T06:26:24.693Z,1292
2017-05-21T06:27:33.652Z,1472
2017-05-21T06:28:42.613Z,1200
2017-05-21T06:29:51.992Z,1124
2017-05-21T06:31:01.038Z,1124
2017-05-21T06:32:10.257Z,1128
2017-05-21T06:33:19.215Z,1136
2017-05-21T06:34:28.180Z,1152
2017-05-21T06:35:37.137Z,1172
2017-05-21T06:36:46.095Z,1160
2017-05-21T06:37:55.305Z,1176
2017-05-21T06:39:04.265Z,1192
2017-05-21T06:40:13.288Z,1192
2017-05-21T06:41:22.248Z,1184
2017-05-21T06:42:31.209Z,1200
2017-05-21T06:43:40.473Z,1200
2017-05-21T06:44:49.443Z,1204
2017-05-21T06:45:58.409Z,1216
2017-05-21T06:47:07.372Z,1220
2017-05-21T06:48:16.337Z,1232
2017-05-21T06:49:25.566Z,1204
2017-05-21T06:50:34.527Z,1204
2017-05-21T06:51:43.820Z,1216
2017-05-21T06:52:52.867Z,1228
2017-05-21T06:54:01.824Z,1224
2017-05-21T06:55:11.049Z,1236
2017-05-21T06:56:20.011Z,1236
2017-05-21T06:57:28.973Z,1256
2017-05-21T06:58:37.934Z,1264
2017-05-21T06:59:46.996Z,1260
2017-05-21T07:00:56.213Z,1260
2017-05-21T07:02:05.182Z,1264
2017-05-21T07:03:14.145Z,1264
2017-05-21T07:04:23.112Z,1272
2017-05-21T07:05:32.161Z,1284
2017-05-21T07:06:41.371Z,1296
2017-05-21T07:07:50.333Z,1304
2017-05-21T07:08:59.293Z,1296
2017-05-21T07:10:08.339Z,1308
2017-05-21T07:11:17.296Z,1324
2017-05-21T07:12:26.508Z,1332
2017-05-21T07:13:35.470Z,1344
2017-05-21T07:14:44.443Z,1352
2017-05-21T07:15:53.404Z,1340
2017-05-21T07:17:02.372Z,1344
2017-05-21T07:18:11.644Z,1352
2017-05-21T07:19:20.623Z,1388
2017-05-21T07:20:29.591Z,1376
2017-05-21T07:21:38.543Z,1400
2017-05-21T07:22:47.510Z,1396
2017-05-21T07:23:56.723Z,1368
2017-05-21T07:25:05.686Z,1384
2017-05-21T07:26:14.650Z,1408
2017-05-21T07:27:23.615Z,1444
2017-05-21T07:28:32.581Z,1452
2017-05-21T07:29:41.844Z,1512
2017-05-21T07:30:50.818Z,1440
2017-05-21T07:32:01.530Z,1432
2017-05-21T07:33:10.491Z,1448
2017-05-21T07:34:19.451Z,1500
2017-05-21T07:35:28.689Z,1468
2017-05-21T07:36:37.647Z,1524
2017-05-21T07:37:46.613Z,1404
2017-05-21T07:38:55.580Z,1456
2017-05-21T07:40:04.544Z,1500
2017-05-21T07:41:13.759Z,1472
2017-05-21T07:42:22.728Z,1456
2017-05-21T07:43:31.693Z,1524
2017-05-21T07:44:40.653Z,1592
2017-05-21T07:45:49.674Z,1560
2017-05-21T07:46:58.891Z,1544
2017-05-21T07:48:07.939Z,1476
2017-05-21T07:49:16.910Z,1544
2017-05-21T07:50:25.897Z,1552
2017-05-21T07:51:35.151Z,1612
2017-05-21T07:52:44.440Z,1912
2017-05-21T07:53:53.403Z,1736
2017-05-21T07:55:02.541Z,1588
2017-05-21T07:56:11.614Z,1788
2017-05-21T07:57:20.668Z,2344
2017-05-21T07:58:29.881Z,1744
2017-05-21T07:59:38.864Z,1592
2017-05-21T08:00:48.155Z,1592
2017-05-21T08:01:57.293Z,1620
2017-05-21T08:03:06.263Z,1840
2017-05-21T08:04:15.799Z,1696
2017-05-21T08:05:24.760Z,1656
2017-05-21T08:06:33.719Z,1692
2017-05-21T08:07:42.759Z,1784
2017-05-21T08:08:51.723Z,1728
2017-05-21T08:10:00.933Z,1816
2017-05-21T08:11:09.890Z,1816
2017-05-21T08:12:18.851Z,1832
2017-05-21T08:13:27.816Z,1784
2017-05-21T08:14:36.784Z,1864
2017-05-21T08:15:46.000Z,1952
2017-05-21T08:16:54.963Z,1920
2017-05-21T08:18:03.925Z,1876
2017-05-21T08:19:12.887Z,2112
2017-05-21T08:20:21.861Z,2348
2017-05-21T08:21:31.374Z,2360
2017-05-21T08:22:40.334Z,2792
2017-05-21T08:23:49.302Z,2952
2017-05-21T08:24:58.270Z,2896
2017-05-21T08:26:07.290Z,2848
2017-05-21T08:27:16.559Z,3132
2017-05-21T08:28:25.524Z,2496
2017-05-21T08:29:34.691Z,2608
2017-05-21T08:30:43.722Z,2496
2017-05-21T08:31:52.803Z,2508
2017-05-21T08:33:02.143Z,2656
2017-05-21T08:34:11.559Z,2716
2017-05-21T08:35:20.637Z,2608
2017-05-21T08:36:30.019Z,2720
2017-05-21T08:37:39.075Z,2732
2017-05-21T08:38:48.513Z,2864
2017-05-21T08:39:57.550Z,2764
2017-05-21T08:41:06.676Z,2784
2017-05-21T08:42:15.791Z,2772
2017-05-21T08:43:24.778Z,2864
2017-05-21T08:44:34.017Z,2996
2017-05-21T08:45:43.003Z,2924
2017-05-21T08:46:51.990Z,2824
2017-05-21T08:48:00.975Z,2812
2017-05-21T08:49:09.966Z,2840
2017-05-21T08:50:19.205Z,2824
2017-05-21T08:51:28.519Z,2704
2017-05-21T08:52:37.506Z,2848
2017-05-21T08:53:46.492Z,2800
2017-05-21T08:54:55.566Z,2780
2017-05-21T08:56:04.853Z,2896
2017-05-21T08:57:13.842Z,3096
2017-05-21T08:58:22.846Z,3248
2017-05-21T08:59:31.838Z,2728
2017-05-21T09:00:40.823Z,2352
2017-05-21T09:01:50.055Z,2552
2017-05-21T09:02:59.098Z,3260
2017-05-21T09:04:08.100Z,2696
2017-05-21T09:05:17.091Z,1028
2017-05-21T09:06:26.079Z,1976
2017-05-21T09:07:35.312Z,2004
2017-05-21T09:08:44.304Z,2240
2017-05-21T09:09:53.386Z,2668
2017-05-21T09:11:02.369Z,2084
2017-05-21T09:12:11.355Z,1832
2017-05-21T09:13:20.594Z,1872
2017-05-21T09:14:29.586Z,1948
2017-05-21T09:15:38.566Z,1924
2017-05-21T09:16:47.549Z,1908
2017-05-21T09:17:56.536Z,1908
2017-05-21T09:19:05.780Z,1900
2017-05-21T09:20:14.768Z,1924
2017-05-21T09:21:23.756Z,2088
2017-05-21T09:22:32.743Z,2236
2017-05-21T09:23:41.736Z,2448
2017-05-21T09:24:50.982Z,2316
2017-05-21T09:26:00.063Z,2380
2017-05-21T09:27:09.053Z,2612
2017-05-21T09:28:18.098Z,2236
2017-05-21T09:29:27.108Z,2004
2017-05-21T09:30:36.343Z,2436
2017-05-21T09:31:45.338Z,2760
2017-05-21T09:32:54.334Z,1288
2017-05-21T09:34:03.325Z,1032
2017-05-21T09:35:12.402Z,828
2017-05-21T09:36:21.642Z,832
2017-05-21T09:37:30.633Z,1016
2017-05-21T09:38:39.710Z,1916
2017-05-21T09:39:48.700Z,1820
2017-05-21T09:40:57.694Z,1848
2017-05-21T09:42:06.984Z,1856
2017-05-21T09:43:15.969Z,1824
2017-05-21T09:44:24.957Z,1876
2017-05-21T09:45:33.940Z,2088
2017-05-21T09:46:42.930Z,2452
2017-05-21T09:47:52.168Z,3004
2017-05-21T09:49:01.164Z,3412
2017-05-21T09:50:10.158Z,3360
2017-05-21T09:51:19.142Z,2352
2017-05-21T09:52:28.140Z,2720
2017-05-21T09:53:37.424Z,1964
2017-05-21T09:54:46.420Z,1820
2017-05-21T09:55:55.410Z,1680
2017-05-21T09:57:04.401Z,1192
2017-05-21T09:58:13.569Z,1148
2017-05-21T09:59:22.819Z,1012
2017-05-21T10:00:31.808Z,1096
2017-05-21T10:01:40.792Z,2080
2017-05-21T10:02:49.868Z,2368
2017-05-21T10:03:58.853Z,3072
2017-05-21T10:05:08.601Z,3828
2017-05-21T10:06:17.664Z,3056
2017-05-21T10:07:26.648Z,2132
2017-05-21T10:08:35.635Z,1888
2017-05-21T10:09:44.618Z,1624
2017-05-21T10:10:53.909Z,1172
2017-05-21T10:12:02.902Z,1156
2017-05-21T10:13:12.041Z,1308
2017-05-21T10:14:21.041Z,2420
2017-05-21T10:15:30.032Z,2692
2017-05-21T10:16:39.380Z,3164
2017-05-21T10:17:48.407Z,2324
2017-05-21T10:18:57.369Z,2112
2017-05-21T10:20:06.335Z,2008
2017-05-21T10:21:15.596Z,1584
2017-05-21T10:22:24.871Z,1204
2017-05-21T10:23:33.885Z,1268
2017-05-21T10:24:42.854Z,1268
2017-05-21T10:25:51.818Z,1468
2017-05-21T10:27:00.785Z,1588
2017-05-21T10:28:10.000Z,2912
2017-05-21T10:29:18.975Z,2924
2017-05-21T10:30:27.948Z,2508
2017-05-21T10:31:36.949Z,2340
2017-05-21T10:32:45.913Z,2268
2017-05-21T10:33:55.133Z,2508
2017-05-21T10:35:04.091Z,2352
2017-05-21T10:36:13.061Z,2180
2017-05-21T10:37:22.028Z,2212
2017-05-21T10:38:30.996Z,2500
2017-05-21T10:39:40.205Z,2600
2017-05-21T10:40:49.502Z,2420
2017-05-21T10:41:58.465Z,1972
2017-05-21T10:43:07.570Z,1656
2017-05-21T10:44:16.532Z,1288
2017-05-21T10:45:25.761Z,1292
2017-05-21T10:46:34.726Z,1416
2017-05-21T10:47:43.697Z,1688
2017-05-21T10:48:52.667Z,1760
2017-05-21T10:50:01.727Z,2616
2017-05-21T10:51:10.938Z,2360
2017-05-21T10:52:19.903Z,1524
2017-05-21T10:53:28.870Z,1180
2017-05-21T10:54:37.837Z,1100
2017-05-21T10:55:46.855Z,1108
2017-05-21T10:56:56.077Z,1292
2017-05-21T10:58:05.035Z,2096
2017-05-21T10:59:14.010Z,1932
2017-05-21T11:00:22.972Z,1892
2017-05-21T11:01:31.936Z,2020
2017-05-21T11:02:41.154Z,2296
2017-05-21T11:03:50.278Z,2568
2017-05-21T11:04:59.248Z,2996
2017-05-21T11:06:08.213Z,2948
2017-05-21T11:07:17.257Z,2600
2017-05-21T11:08:26.471Z,3232
2017-05-21T11:09:35.436Z,2552
2017-05-21T11:10:44.402Z,2896
2017-05-21T11:11:53.360Z,2304
2017-05-21T11:13:02.322Z,1688
2017-05-21T11:14:11.540Z,1736
2017-05-21T11:15:20.552Z,1684
2017-05-21T11:16:29.523Z,1616
2017-05-21T11:17:38.491Z,2324
2017-05-21T11:18:47.457Z,2488
2017-05-21T11:19:56.680Z,2888
2017-05-21T11:21:05.709Z,3252
2017-05-21T11:22:14.671Z,3676
2017-05-21T11:23:23.636Z,3400
2017-05-21T11:24:32.601Z,3420
2017-05-21T11:25:41.826Z,3564
2017-05-21T11:26:50.793Z,2924
2017-05-21T11:27:59.765Z,2944
2017-05-21T11:29:08.732Z,2232
2017-05-21T11:30:17.697Z,1932
2017-05-21T11:31:26.969Z,2488
2017-05-21T11:32:35.932Z,2864
2017-05-21T11:33:44.894Z,2824
2017-05-21T11:34:53.864Z,2872
2017-05-21T11:36:02.917Z,2680
2017-05-21T11:37:12.554Z,3044
2017-05-21T11:38:21.531Z,2772
2017-05-21T11:39:30.501Z,2252
2017-05-21T11:40:39.490Z,1996
2017-05-21T11:41:48.454Z,1996
2017-05-21T11:42:57.732Z,2116
2017-05-21T11:44:06.697Z,1608
2017-05-21T11:45:15.728Z,1364
2017-05-21T11:46:24.694Z,1072
2017-05-21T11:47:33.678Z,1088
2017-05-21T11:48:42.894Z,1036
2017-05-21T11:49:51.868Z,1540
2017-05-21T11:51:00.833Z,1700
2017-05-21T11:52:09.809Z,1692
2017-05-21T11:53:18.774Z,1736
2017-05-21T11:54:28.037Z,1776
2017-05-21T11:55:37.005Z,1816
2017-05-21T11:56:45.971Z,1936
2017-05-21T11:57:54.938Z,2220
2017-05-21T11:59:03.918Z,2360
2017-05-21T12:00:13.226Z,1980
2017-05-21T12:01:22.188Z,1988
2017-05-21T12:02:31.210Z,3020
2017-05-21T12:03:40.174Z,2296
2017-05-21T12:04:49.256Z,3184
2017-05-21T12:05:58.754Z,3240
2017-05-21T12:07:07.732Z,3224
2017-05-21T12:08:16.710Z,3264
2017-05-21T12:09:26.007Z,3348
2017-05-21T12:10:34.973Z,3220
2017-05-21T12:11:44.234Z,2932
2017-05-21T12:12:53.198Z,2740
2017-05-21T12:14:02.165Z,2248
2017-05-21T12:15:11.135Z,1192
2017-05-21T12:16:20.101Z,1772
2017-05-21T12:17:29.383Z,1488
2017-05-21T12:18:38.435Z,1208
2017-05-21T12:19:47.726Z,1772
2017-05-21T12:20:56.697Z,1724
2017-05-21T12:22:05.661Z,2128
2017-05-21T12:23:14.881Z,2420
2017-05-21T12:24:23.852Z,2516
2017-05-21T12:25:32.828Z,2500
2017-05-21T12:26:41.791Z,2268
2017-05-21T12:27:50.759Z,1884
2017-05-21T12:28:59.978Z,1588
2017-05-21T12:30:08.953Z,800
2017-05-21T12:31:18.023Z,932
2017-05-21T12:32:27.051Z,988
2017-05-21T12:33:36.342Z,992
2017-05-21T12:34:45.607Z,948
2017-05-21T12:35:54.901Z,972
2017-05-21T12:37:03.886Z,1156
2017-05-21T12:38:12.862Z,1868
2017-05-21T12:39:22.005Z,1832
2017-05-21T12:40:31.617Z,1832
2017-05-21T12:41:40.885Z,1952
2017-05-21T12:42:50.072Z,2096
2017-05-21T12:43:59.187Z,2060
2017-05-21T12:45:08.331Z,2088
2017-05-21T12:46:17.696Z,2224
2017-05-21T12:47:26.783Z,3080
2017-05-21T12:48:35.846Z,3552
2017-05-21T12:49:45.094Z,3528
2017-05-21T12:50:54.206Z,2692
2017-05-21T12:52:03.872Z,3268
2017-05-21T12:53:12.892Z,2440
2017-05-21T12:54:22.026Z,2352
2017-05-21T12:55:31.187Z,2324
2017-05-21T12:56:40.269Z,2564
2017-05-21T12:57:49.613Z,3128
2017-05-21T12:58:58.822Z,2648
2017-05-21T13:00:08.013Z,3332
2017-05-21T13:01:17.111Z,3144
2017-05-21T13:02:26.134Z,3056
2017-05-21T13:03:35.488Z,3116
2017-05-21T13:04:44.625Z,2900
2017-05-21T13:05:53.727Z,2140
2017-05-21T13:07:02.797Z,2476
2017-05-21T13:08:11.833Z,1992
2017-05-21T13:09:21.136Z,1712
2017-05-21T13:10:30.229Z,1492
2017-05-21T13:11:39.294Z,1388
2017-05-21T13:12:48.432Z,1276
2017-05-21T13:13:57.493Z,1368
2017-05-21T13:15:06.761Z,1416
2017-05-21T13:16:15.812Z,1576
2017-05-21T13:17:24.779Z,1504
2017-05-21T13:18:33.823Z,1396
2017-05-21T13:19:42.788Z,1284
2017-05-21T13:20:52.168Z,1288
2017-05-21T13:22:01.144Z,1700
2017-05-21T13:23:10.160Z,1748
2017-05-21T13:24:19.128Z,1792
2017-05-21T13:25:28.096Z,1852
2017-05-21T13:26:37.309Z,1996
2017-05-21T13:27:46.516Z,2088
2017-05-21T13:28:55.481Z,2280
2017-05-21T13:30:05.069Z,2344
2017-05-21T13:31:14.249Z,2996
2017-05-21T13:32:23.572Z,3060
2017-05-21T13:33:32.606Z,3068
2017-05-21T13:34:41.662Z,2636
2017-05-21T13:35:50.917Z,2436
2017-05-21T13:37:00.110Z,2252
2017-05-21T13:38:09.390Z,2108
2017-05-21T13:39:18.389Z,1940
2017-05-21T13:40:27.354Z,1788
2017-05-21T13:41:36.328Z,1656
2017-05-21T13:42:45.303Z,1596
2017-05-21T13:43:54.843Z,1640
2017-05-21T13:45:03.813Z,1692
2017-05-21T13:46:12.788Z,1804
2017-05-21T13:47:21.749Z,2060
2017-05-21T13:48:30.722Z,1920
2017-05-21T13:49:39.939Z,2344
2017-05-21T13:50:48.991Z,2452
2017-05-21T13:51:58.547Z,2152
2017-05-21T13:53:07.519Z,1688
2017-05-21T13:54:16.492Z,1964
2017-05-21T13:55:25.716Z,1976
2017-05-21T13:56:34.732Z,2168
2017-05-21T13:57:43.702Z,2392
2017-05-21T13:58:52.671Z,2584
2017-05-21T14:00:01.642Z,2704
2017-05-21T14:01:10.870Z,2600
2017-05-21T14:02:19.830Z,2368
2017-05-21T14:03:28.889Z,2288
2017-05-21T14:04:37.855Z,2244
2017-05-21T14:05:46.819Z,2236
2017-05-21T14:06:56.033Z,2220
2017-05-21T14:08:05.002Z,2140
2017-05-21T14:09:14.055Z,1996
2017-05-21T14:10:23.021Z,1916
2017-05-21T14:11:32.009Z,2192
2017-05-21T14:12:41.232Z,2780
2017-05-21T14:13:50.205Z,2680
2017-05-21T14:14:59.262Z,2856
2017-05-21T14:16:08.304Z,2596
2017-05-21T14:17:17.268Z,2312
2017-05-21T14:18:26.482Z,2716
2017-05-21T14:19:35.535Z,2952
2017-05-21T14:20:44.503Z,2260
2017-05-21T14:21:53.474Z,1720
2017-05-21T14:23:02.442Z,1612
2017-05-21T14:24:11.670Z,2344
2017-05-21T14:25:20.640Z,2188
2017-05-21T14:26:29.672Z,1872
2017-05-21T14:27:38.639Z,1604
2017-05-21T14:28:47.619Z,2244
2017-05-21T14:29:56.832Z,1512
2017-05-21T14:31:05.799Z,2216
2017-05-21T14:32:15.087Z,1668
2017-05-21T14:33:24.057Z,1516
2017-05-21T14:34:33.023Z,1896
2017-05-21T14:35:42.303Z,2044
2017-05-21T14:36:51.298Z,1664
2017-05-21T14:38:00.265Z,1060
2017-05-21T14:39:09.231Z,1596
2017-05-21T14:40:18.246Z,1456
2017-05-21T14:41:27.466Z,1400
2017-05-21T14:42:36.435Z,1444
2017-05-21T14:43:45.406Z,1520
2017-05-21T14:44:54.365Z,1544
2017-05-21T14:46:03.417Z,1508
2017-05-21T14:47:12.633Z,1432
2017-05-21T14:48:21.629Z,1412
2017-05-21T14:49:30.612Z,1404
2017-05-21T14:50:39.578Z,1500
2017-05-21T14:51:48.646Z,1588
2017-05-21T14:52:57.865Z,1656
2017-05-21T14:54:06.825Z,1644
2017-05-21T14:55:16.159Z,1696
2017-05-21T14:56:25.131Z,1776
2017-05-21T14:57:34.264Z,1824
2017-05-21T14:58:43.866Z,1788
2017-05-21T14:59:53.026Z,1816
2017-05-21T15:01:02.113Z,1780
2017-05-21T15:02:11.081Z,1760
2017-05-21T15:03:20.051Z,1740
2017-05-21T15:04:29.589Z,1316
2017-05-21T15:05:38.552Z,1176
2017-05-21T15:06:47.886Z,1448
2017-05-21T15:07:56.874Z,1604
2017-05-21T15:09:05.869Z,1336
2017-05-21T15:10:15.111Z,1684
2017-05-21T15:11:24.103Z,1692
2017-05-21T15:12:33.095Z,1128
2017-05-21T15:13:42.088Z,1036
2017-05-21T15:14:51.168Z,1012
2017-05-21T15:16:00.408Z,1048
2017-05-21T15:17:09.407Z,1128
2017-05-21T15:18:18.395Z,1108
2017-05-21T15:19:27.393Z,1052
2017-05-21T15:20:36.382Z,920
2017-05-21T15:21:45.628Z,984
2017-05-21T15:22:54.617Z,1244
2017-05-21T15:24:03.610Z,1188
2017-05-21T15:25:12.587Z,1136
2017-05-21T15:26:21.577Z,1104
2017-05-21T15:27:30.864Z,1080
2017-05-21T15:28:39.856Z,1096
2017-05-21T15:29:48.853Z,616
2017-05-21T15:30:57.843Z,592
2017-05-21T15:32:06.915Z,588
2017-05-21T15:33:16.156Z,588
2017-05-21T15:34:25.468Z,624
2017-05-21T15:35:34.454Z,656
2017-05-21T15:36:43.449Z,636
2017-05-21T15:37:52.438Z,712
2017-05-21T15:39:01.677Z,632
2017-05-21T15:40:10.664Z,656
2017-05-21T15:41:19.654Z,680
2017-05-21T15:42:28.643Z,948
2017-05-21T15:43:38.062Z,1124
2017-05-21T15:44:47.298Z,1164